createdAt,value
2018-06-23T00:02:30.317Z,64.20
2018-06-23T00:06:33.963Z,65.70
2018-06-23T00:10:37.708Z,66.40
2018-06-23T00:14:41.401Z,65.10
2018-06-23T00:18:45.138Z,65.50
2018-06-23T00:22:48.800Z,64.80
2018-06-23T00:26:52.608Z,65.20
2018-06-23T00:30:56.304Z,65.10
2018-06-23T00:34:59.992Z,65.70
2018-06-23T00:39:03.900Z,65.20
2018-06-23T00:43:07.637Z,65.40
2018-06-23T00:47:11.350Z,66.70
2018-06-23T00:51:15.121Z,66.50
2018-06-23T00:55:18.847Z,66.20
2018-06-23T00:59:37.352Z,66.40
2018-06-23T01:03:41.064Z,66.70
2018-06-23T01:07:44.738Z,65.50
2018-06-23T01:11:48.457Z,66.20
2018-06-23T01:15:52.141Z,65.90
2018-06-23T01:19:55.795Z,66.10
2018-06-23T01:23:59.437Z,66.10
2018-06-23T01:28:03.111Z,65.70
2018-06-23T01:32:06.878Z,66.00
2018-06-23T01:36:10.562Z,66.60
2018-06-23T01:40:14.231Z,66.10
2018-06-23T01:44:17.871Z,65.20
2018-06-23T01:48:21.548Z,65.70
2018-06-23T01:52:25.264Z,65.80
2018-06-23T01:56:28.965Z,66.40
2018-06-23T02:00:32.602Z,65.30
2018-06-23T02:04:36.306Z,65.50
2018-06-23T02:08:39.987Z,65.50
2018-06-23T02:12:43.656Z,65.80
2018-06-23T02:17:54.459Z,66.00
2018-06-23T02:22:03.527Z,66.20
2018-06-23T02:26:12.432Z,65.70
2018-06-23T02:30:21.340Z,66.60
2018-06-23T02:34:30.421Z,65.80
2018-06-23T02:38:34.103Z,65.50
2018-06-23T02:42:37.799Z,65.90
2018-06-23T02:46:41.497Z,66.40
2018-06-23T02:50:45.148Z,67.40
2018-06-23T02:54:48.856Z,67.00
2018-06-23T02:58:52.616Z,66.10
2018-06-23T03:02:56.276Z,67.00
2018-06-23T03:06:59.928Z,66.00
2018-06-23T03:11:03.594Z,67.20
2018-06-23T03:15:07.293Z,66.60
2018-06-23T03:19:10.975Z,66.90
2018-06-23T03:23:14.664Z,68.40
2018-06-23T03:27:18.306Z,67.50
2018-06-23T03:31:22.029Z,66.30
2018-06-23T03:35:25.729Z,67.50
2018-06-23T03:39:29.428Z,67.30
2018-06-23T03:43:33.084Z,69.60
2018-06-23T03:47:36.816Z,68.50
2018-06-23T03:51:40.495Z,68.50
2018-06-23T03:55:44.219Z,67.70
2018-06-23T03:59:47.927Z,68.80
2018-06-23T04:03:51.565Z,68.60
2018-06-23T04:07:55.231Z,70.80
2018-06-23T04:11:58.892Z,71.20
2018-06-23T04:16:02.586Z,69.60
2018-06-23T04:20:06.295Z,69.10
2018-06-23T04:24:09.936Z,68.60
2018-06-23T04:28:13.609Z,68.70
2018-06-23T04:32:17.599Z,70.40
2018-06-23T04:36:21.299Z,69.60
2018-06-23T04:40:24.972Z,69.50
2018-06-23T04:44:28.635Z,69.10
2018-06-23T04:48:32.318Z,72.50
2018-06-23T04:56:39.379Z,70.60
2018-06-23T05:00:43.057Z,73.80
2018-06-23T05:04:46.689Z,74.90
2018-06-23T05:08:50.367Z,71.80
2018-06-23T05:12:54.044Z,73.60
2018-06-23T05:16:58.051Z,73.80
2018-06-23T05:21:01.801Z,73.90
2018-06-23T05:25:05.989Z,73.50
2018-06-23T05:29:09.704Z,73.60
2018-06-23T05:33:14.272Z,75.10
2018-06-23T05:37:17.948Z,71.70
2018-06-23T05:41:21.628Z,74.60
2018-06-23T05:45:25.320Z,73.70
2018-06-23T05:49:28.991Z,73.50
2018-06-23T05:53:32.801Z,73.90
2018-06-23T05:57:36.453Z,72.60
2018-06-23T06:01:40.100Z,73.30
2018-06-23T06:05:43.794Z,73.70
2018-06-23T06:09:47.468Z,73.10
2018-06-23T06:13:51.169Z,76.00
2018-06-23T06:17:54.831Z,74.90
2018-06-23T06:21:58.473Z,76.00
2018-06-23T06:26:02.251Z,75.20
2018-06-23T06:30:07.026Z,73.70
2018-06-23T06:34:10.713Z,74.70
2018-06-23T06:38:14.389Z,75.00
2018-06-23T06:42:18.084Z,73.90
2018-06-23T06:46:21.741Z,74.50
2018-06-23T06:50:25.399Z,76.20
2018-06-23T06:54:29.196Z,77.10
2018-06-23T06:58:32.876Z,77.50
2018-06-23T07:02:36.592Z,77.70
2018-06-23T07:06:40.435Z,77.20
2018-06-23T07:10:44.112Z,77.10
2018-06-23T07:14:47.816Z,77.30
2018-06-23T07:18:51.472Z,77.40
2018-06-23T07:22:55.152Z,77.10
2018-06-23T07:26:58.936Z,76.80
2018-06-23T07:31:02.588Z,78.70
2018-06-23T07:35:06.403Z,76.40
2018-06-23T07:39:10.946Z,77.00
2018-06-23T07:43:14.661Z,76.10
2018-06-23T07:47:18.373Z,75.70
2018-06-23T07:51:22.089Z,74.70
2018-06-23T07:55:25.819Z,76.00
2018-06-23T07:59:29.463Z,75.60
2018-06-23T08:03:33.753Z,75.60
2018-06-23T08:07:37.414Z,75.40
2018-06-23T08:11:41.161Z,76.30
2018-06-23T08:15:44.875Z,75.10
2018-06-23T08:19:48.555Z,73.60
2018-06-23T08:23:52.276Z,72.90
2018-06-23T08:27:55.959Z,69.80
2018-06-23T08:31:59.689Z,68.80
2018-06-23T08:36:03.394Z,67.50
2018-06-23T08:40:07.084Z,68.10
2018-06-23T08:44:10.812Z,68.60
2018-06-23T08:48:14.494Z,67.60
2018-06-23T08:52:18.732Z,66.00
2018-06-23T08:56:22.538Z,65.70
2018-06-23T09:00:26.172Z,67.10
2018-06-23T09:04:29.867Z,67.00
2018-06-23T09:08:33.535Z,64.10
2018-06-23T09:12:37.211Z,63.50
2018-06-23T09:16:40.890Z,65.00
2018-06-23T09:20:44.559Z,63.70
2018-06-23T09:24:48.233Z,63.30
2018-06-23T09:28:51.883Z,64.30
2018-06-23T09:32:55.571Z,62.80
2018-06-23T09:36:59.340Z,63.00
2018-06-23T09:41:03.033Z,64.50
2018-06-23T09:45:06.787Z,63.20
2018-06-23T09:49:10.464Z,62.20
2018-06-23T09:53:14.149Z,62.00
2018-06-23T09:57:17.854Z,60.80
2018-06-23T10:01:21.649Z,61.30
2018-06-23T10:05:25.316Z,61.00
2018-06-23T10:09:28.979Z,59.80
2018-06-23T10:13:32.645Z,59.00
2018-06-23T10:17:36.300Z,59.10
2018-06-23T10:21:39.973Z,60.20
2018-06-23T10:25:43.663Z,59.40
2018-06-23T10:29:47.335Z,60.20
2018-06-23T10:33:50.990Z,58.20
2018-06-23T10:37:54.642Z,59.30
2018-06-23T10:41:58.309Z,58.70
2018-06-23T10:46:02.040Z,57.60
2018-06-23T10:50:05.939Z,58.20
2018-06-23T10:54:09.678Z,57.30
2018-06-23T10:58:13.330Z,57.30
2018-06-23T11:02:17.030Z,58.80
2018-06-23T11:06:20.712Z,57.10
2018-06-23T11:10:24.404Z,57.90
2018-06-23T11:14:28.037Z,56.00
2018-06-23T11:18:31.751Z,57.60
2018-06-23T11:22:35.430Z,57.00
2018-06-23T11:26:39.107Z,57.30
2018-06-23T11:30:42.790Z,57.50
2018-06-23T11:34:46.426Z,58.10
2018-06-23T11:38:50.091Z,57.70
2018-06-23T11:42:53.773Z,57.00
2018-06-23T11:46:57.445Z,57.20
2018-06-23T11:51:01.100Z,57.60
2018-06-23T11:55:04.796Z,57.00
2018-06-23T11:59:08.500Z,57.70
2018-06-23T12:03:12.237Z,58.00
2018-06-23T12:07:15.886Z,56.30
2018-06-23T12:11:19.965Z,57.30
2018-06-23T12:15:23.667Z,57.90
2018-06-23T12:19:27.312Z,58.80
2018-06-23T12:23:30.979Z,57.80
2018-06-23T12:27:34.704Z,56.10
2018-06-23T12:31:38.504Z,56.80
2018-06-23T12:35:42.195Z,55.70
2018-06-23T12:39:45.876Z,56.90
2018-06-23T12:43:49.607Z,54.90
2018-06-23T12:47:53.281Z,55.00
2018-06-23T12:51:56.978Z,54.10
2018-06-23T12:56:00.682Z,54.80
2018-06-23T13:00:05.212Z,56.10
2018-06-23T13:04:08.919Z,56.20
2018-06-23T13:08:12.657Z,55.40
2018-06-23T13:12:16.305Z,54.80
2018-06-23T13:16:19.956Z,54.30
2018-06-23T13:20:23.639Z,55.60
2018-06-23T13:24:27.313Z,56.20
2018-06-23T13:28:31.021Z,54.00
2018-06-23T13:32:34.715Z,54.80
2018-06-23T13:36:38.500Z,55.50
2018-06-23T13:40:42.206Z,54.30
2018-06-23T13:44:45.899Z,55.40
2018-06-23T13:48:49.585Z,54.70
2018-06-23T13:52:53.259Z,54.10
2018-06-23T13:56:56.973Z,54.10
2018-06-23T14:01:00.744Z,52.50
2018-06-23T14:05:04.531Z,53.10
2018-06-23T14:09:09.997Z,53.40
2018-06-23T14:13:13.690Z,53.50
2018-06-23T14:21:21.272Z,52.60
2018-06-23T14:25:25.071Z,52.30
2018-06-23T14:29:28.887Z,51.60
2018-06-23T14:33:32.568Z,51.60
2018-06-23T14:37:36.284Z,52.90
2018-06-23T14:41:40.100Z,52.90
2018-06-23T14:45:43.800Z,54.00
2018-06-23T14:49:47.504Z,52.70
2018-06-23T14:53:51.193Z,54.50
2018-06-23T14:57:54.984Z,52.80
2018-06-23T15:01:59.496Z,53.00
2018-06-23T15:06:06.085Z,53.10
2018-06-23T15:10:21.167Z,54.10
2018-06-23T15:14:25.340Z,54.20
2018-06-23T15:18:29.028Z,53.30
2018-06-23T15:22:32.716Z,53.80
2018-06-23T15:26:36.401Z,54.30
2018-06-23T15:30:40.083Z,52.60
2018-06-23T15:34:43.708Z,54.00
2018-06-23T15:38:47.375Z,53.70
2018-06-23T15:42:51.070Z,53.30
2018-06-23T15:46:54.775Z,53.60
2018-06-23T15:50:58.513Z,52.60
2018-06-23T15:55:02.153Z,53.90
2018-06-23T15:59:05.872Z,53.60
2018-06-23T16:03:09.542Z,53.20
2018-06-23T16:07:13.326Z,53.70
2018-06-23T16:11:16.999Z,53.40
2018-06-23T16:15:20.756Z,54.20
2018-06-23T16:19:24.562Z,54.50
2018-06-23T16:23:28.373Z,54.30
2018-06-23T16:27:32.100Z,54.20
2018-06-23T16:31:35.779Z,55.00
2018-06-23T16:35:39.582Z,55.00
2018-06-23T16:39:43.255Z,55.40
2018-06-23T16:43:46.927Z,55.80
2018-06-23T16:47:50.600Z,56.20
2018-06-23T16:51:54.259Z,56.50
2018-06-23T16:55:57.896Z,56.70
2018-06-23T17:00:01.601Z,56.90
2018-06-23T17:04:05.379Z,57.10
2018-06-23T17:08:09.040Z,57.40
2018-06-23T17:12:12.831Z,57.20
2018-06-23T17:16:16.528Z,57.10
2018-06-23T17:20:20.205Z,57.30
2018-06-23T17:24:23.884Z,57.70
2018-06-23T17:28:27.544Z,57.80
2018-06-23T17:32:31.212Z,58.00
2018-06-23T17:36:34.858Z,58.10
2018-06-23T17:40:38.548Z,58.10
2018-06-23T17:44:42.204Z,58.30
2018-06-23T17:48:45.959Z,58.30
2018-06-23T17:52:49.634Z,58.20
2018-06-23T17:56:53.299Z,58.30
2018-06-23T18:00:56.924Z,58.60
2018-06-23T18:05:00.603Z,58.30
2018-06-23T18:09:06.584Z,58.60
2018-06-23T18:13:10.343Z,58.80
2018-06-23T18:17:14.012Z,58.50
2018-06-23T18:21:17.669Z,58.50
2018-06-23T18:25:21.487Z,58.50
2018-06-23T18:29:25.156Z,58.60
2018-06-23T18:33:28.846Z,58.50
2018-06-23T18:37:32.519Z,58.80
2018-06-23T18:41:36.195Z,58.90
2018-06-23T18:45:39.871Z,58.70
2018-06-23T18:49:43.539Z,59.00
2018-06-23T18:53:47.219Z,59.10
2018-06-23T18:57:50.955Z,59.30
2018-06-23T19:01:54.596Z,59.40
2018-06-23T19:05:58.377Z,59.20
2018-06-23T19:10:02.039Z,59.30
2018-06-23T19:14:05.965Z,59.60
2018-06-23T19:18:09.654Z,59.20
2018-06-23T19:22:13.328Z,59.40
2018-06-23T19:26:17.023Z,59.30
2018-06-23T19:30:20.679Z,59.40
2018-06-23T19:34:24.351Z,59.40
2018-06-23T19:38:28.121Z,59.40
2018-06-23T19:42:31.745Z,59.20
2018-06-23T19:46:35.520Z,59.20
2018-06-23T19:50:39.200Z,59.20
2018-06-23T19:54:42.897Z,59.30
2018-06-23T19:58:46.575Z,59.30
2018-06-23T20:02:50.185Z,59.60
2018-06-23T20:06:53.853Z,59.50
2018-06-23T20:10:57.525Z,59.60
2018-06-23T20:15:01.221Z,59.50
2018-06-23T20:19:04.977Z,59.40
2018-06-23T20:23:08.624Z,59.30
2018-06-23T20:27:12.288Z,59.60
2018-06-23T20:31:16.004Z,59.60
2018-06-23T20:35:19.671Z,59.60
2018-06-23T20:39:23.360Z,59.80
2018-06-23T20:43:26.985Z,59.90
2018-06-23T20:47:30.655Z,59.80
2018-06-23T20:51:34.340Z,59.90
2018-06-23T20:55:38.030Z,59.90
2018-06-23T20:59:41.699Z,60.20
2018-06-23T21:03:45.339Z,60.30
2018-06-23T21:07:49.040Z,60.40
2018-06-23T21:11:52.712Z,60.60
2018-06-23T21:15:56.419Z,60.40
2018-06-23T21:20:00.102Z,60.30
2018-06-23T21:24:03.764Z,60.20
2018-06-23T21:28:07.453Z,60.20
2018-06-23T21:32:11.196Z,60.40
2018-06-23T21:36:14.858Z,60.30
2018-06-23T21:40:18.556Z,59.80
2018-06-23T21:44:22.188Z,59.80
2018-06-23T21:48:25.853Z,60.10
2018-06-23T21:52:29.505Z,60.40
2018-06-23T21:56:33.175Z,60.90
2018-06-23T22:00:40.072Z,60.50
2018-06-23T22:04:43.748Z,60.30
2018-06-23T22:08:47.377Z,61.10
2018-06-23T22:12:51.113Z,61.00
2018-06-23T22:16:54.941Z,60.90
2018-06-23T22:20:58.608Z,60.50
2018-06-23T22:25:02.261Z,60.90
2018-06-23T22:29:05.914Z,60.80
2018-06-23T22:33:09.568Z,60.70
2018-06-23T22:37:13.259Z,60.60
2018-06-23T22:41:17.026Z,60.60
2018-06-23T22:45:20.716Z,60.70
2018-06-23T22:49:24.350Z,60.50
2018-06-23T22:53:28.037Z,59.70
2018-06-23T22:57:31.840Z,59.70
2018-06-23T23:01:35.589Z,60.70
2018-06-23T23:05:39.302Z,60.70
2018-06-23T23:09:43.044Z,60.50
2018-06-23T23:13:46.744Z,60.90
2018-06-23T23:17:50.408Z,60.80
2018-06-23T23:21:54.098Z,60.50
2018-06-23T23:25:57.772Z,60.70
2018-06-23T23:30:01.419Z,61.40
2018-06-23T23:34:05.302Z,60.70
2018-06-23T23:38:09.047Z,60.60
2018-06-23T23:42:12.717Z,60.50
2018-06-23T23:46:16.456Z,60.50
2018-06-23T23:50:20.117Z,60.50
2018-06-23T23:54:23.775Z,60.70
2018-06-23T23:58:27.472Z,60.70
